sensor_id;sensor_type;location;lat;lon;timestamp;temperature;humidity
15409;DHT22;7803;48.130;13.788;2022-11-20T00:02:16;22.30;90.60
15409;DHT22;7803;48.130;13.788;2022-11-20T00:05:19;22.30;90.60
15409;DHT22;7803;48.130;13.788;2022-11-20T00:08:21;22.30;90.60
15409;DHT22;7803;48.130;13.788;2022-11-20T00:11:25;22.30;90.60
15409;DHT22;7803;48.130;13.788;2022-11-20T00:14:27;22.30;90.70
15409;DHT22;7803;48.130;13.788;2022-11-20T00:17:29;22.20;90.70
15409;DHT22;7803;48.130;13.788;2022-11-20T00:20:33;22.20;90.60
15409;DHT22;7803;48.130;13.788;2022-11-20T00:23:34;22.20;90.70
15409;DHT22;7803;48.130;13.788;2022-11-20T00:26:37;22.20;90.70
15409;DHT22;7803;48.130;13.788;2022-11-20T00:29:39;22.20;90.70
15409;DHT22;7803;48.130;13.788;2022-11-20T00:32:41;22.20;90.70
15409;DHT22;7803;48.130;13.788;2022-11-20T00:35:44;22.20;90.70
15409;DHT22;7803;48.130;13.788;2022-11-20T00:38:47;22.20;90.70
15409;DHT22;7803;48.130;13.788;2022-11-20T00:41:52;22.20;90.70
15409;DHT22;7803;48.130;13.788;2022-11-20T00:44:54;22.20;90.70
15409;DHT22;7803;48.130;13.788;2022-11-20T00:47:56;22.10;90.70
15409;DHT22;7803;48.130;13.788;2022-11-20T00:50:59;22.20;90.70
15409;DHT22;7803;48.130;13.788;2022-11-20T00:54:01;22.20;90.70
15409;DHT22;7803;48.130;13.788;2022-11-20T00:57:03;22.10;90.70
15409;DHT22;7803;48.130;13.788;2022-11-20T01:00:07;22.10;90.70
15409;DHT22;7803;48.130;13.788;2022-11-20T01:03:09;22.10;90.70
15409;DHT22;7803;48.130;13.788;2022-11-20T01:06:14;22.10;90.80
15409;DHT22;7803;48.130;13.788;2022-11-20T01:09:16;22.10;90.70
15409;DHT22;7803;48.130;13.788;2022-11-20T01:12:18;22.10;90.70
15409;DHT22;7803;48.130;13.788;2022-11-20T01:15:21;22.10;90.70
15409;DHT22;7803;48.130;13.788;2022-11-20T01:18:23;22.10;90.70
15409;DHT22;7803;48.130;13.788;2022-11-20T01:21:28;22.00;90.60
15409;DHT22;7803;48.130;13.788;2022-11-20T01:24:30;22.00;90.60
15409;DHT22;7803;48.130;13.788;2022-11-20T01:27:32;22.00;90.60
15409;DHT22;7803;48.130;13.788;2022-11-20T01:30:34;22.00;90.60
15409;DHT22;7803;48.130;13.788;2022-11-20T01:33:36;22.00;90.70
15409;DHT22;7803;48.130;13.788;2022-11-20T01:36:40;22.00;90.80
15409;DHT22;7803;48.130;13.788;2022-11-20T01:39:42;22.00;90.80
15409;DHT22;7803;48.130;13.788;2022-11-20T01:43:10;22.00;90.80
15409;DHT22;7803;48.130;13.788;2022-11-20T01:46:27;22.00;90.70
15409;DHT22;7803;48.130;13.788;2022-11-20T01:49:36;22.00;90.80
15409;DHT22;7803;48.130;13.788;2022-11-20T01:52:42;22.00;90.80
15409;DHT22;7803;48.130;13.788;2022-11-20T01:55:50;22.00;90.70
15409;DHT22;7803;48.130;13.788;2022-11-20T01:58:55;22.00;90.70
15409;DHT22;7803;48.130;13.788;2022-11-20T02:02:00;22.00;90.70
15409;DHT22;7803;48.130;13.788;2022-11-20T02:05:12;21.90;90.80
15409;DHT22;7803;48.130;13.788;2022-11-20T02:08:16;21.90;90.80
15409;DHT22;7803;48.130;13.788;2022-11-20T02:11:19;21.90;90.80
15409;DHT22;7803;48.130;13.788;2022-11-20T02:14:22;21.90;90.80
15409;DHT22;7803;48.130;13.788;2022-11-20T02:17:26;21.90;90.80
15409;DHT22;7803;48.130;13.788;2022-11-20T02:20:28;21.90;90.80
15409;DHT22;7803;48.130;13.788;2022-11-20T02:23:35;21.90;90.90
15409;DHT22;7803;48.130;13.788;2022-11-20T02:26:46;21.90;90.90
15409;DHT22;7803;48.130;13.788;2022-11-20T02:29:51;21.80;90.80
15409;DHT22;7803;48.130;13.788;2022-11-20T02:32:54;21.80;90.90
15409;DHT22;7803;48.130;13.788;2022-11-20T02:35:56;21.80;90.90
15409;DHT22;7803;48.130;13.788;2022-11-20T02:38:58;21.80;90.90
15409;DHT22;7803;48.130;13.788;2022-11-20T02:42:01;21.80;90.60
15409;DHT22;7803;48.130;13.788;2022-11-20T02:45:04;21.80;90.20
15409;DHT22;7803;48.130;13.788;2022-11-20T02:48:07;21.80;90.20
15409;DHT22;7803;48.130;13.788;2022-11-20T02:51:09;21.80;90.40
15409;DHT22;7803;48.130;13.788;2022-11-20T02:54:11;21.70;90.50
15409;DHT22;7803;48.130;13.788;2022-11-20T02:57:14;21.80;90.70
15409;DHT22;7803;48.130;13.788;2022-11-20T03:00:17;21.70;90.70
15409;DHT22;7803;48.130;13.788;2022-11-20T03:03:19;21.70;90.70
15409;DHT22;7803;48.130;13.788;2022-11-20T03:06:21;21.70;90.80
15409;DHT22;7803;48.130;13.788;2022-11-20T03:09:23;21.70;90.80
15409;DHT22;7803;48.130;13.788;2022-11-20T03:12:26;21.70;90.80
15409;DHT22;7803;48.130;13.788;2022-11-20T03:15:28;21.70;90.90
15409;DHT22;7803;48.130;13.788;2022-11-20T03:18:30;21.70;90.90
15409;DHT22;7803;48.130;13.788;2022-11-20T03:21:33;21.60;90.80
15409;DHT22;7803;48.130;13.788;2022-11-20T03:24:35;21.70;90.90
15409;DHT22;7803;48.130;13.788;2022-11-20T03:27:39;21.70;90.90
15409;DHT22;7803;48.130;13.788;2022-11-20T03:30:41;21.60;90.90
15409;DHT22;7803;48.130;13.788;2022-11-20T03:33:43;21.60;91.00
15409;DHT22;7803;48.130;13.788;2022-11-20T03:36:45;21.70;91.00
15409;DHT22;7803;48.130;13.788;2022-11-20T03:39:47;21.70;91.00
15409;DHT22;7803;48.130;13.788;2022-11-20T03:42:51;21.60;91.00
15409;DHT22;7803;48.130;13.788;2022-11-20T03:45:53;21.60;91.00
15409;DHT22;7803;48.130;13.788;2022-11-20T03:48:55;21.60;91.00
15409;DHT22;7803;48.130;13.788;2022-11-20T03:51:57;21.60;91.00
15409;DHT22;7803;48.130;13.788;2022-11-20T03:54:59;21.60;91.00
15409;DHT22;7803;48.130;13.788;2022-11-20T03:58:03;21.60;91.40
15409;DHT22;7803;48.130;13.788;2022-11-20T04:01:06;21.60;91.10
15409;DHT22;7803;48.130;13.788;2022-11-20T04:04:09;21.60;91.10
15409;DHT22;7803;48.130;13.788;2022-11-20T04:07:11;21.60;91.10
15409;DHT22;7803;48.130;13.788;2022-11-20T04:10:13;21.60;91.10
15409;DHT22;7803;48.130;13.788;2022-11-20T04:13:16;21.60;91.20
15409;DHT22;7803;48.130;13.788;2022-11-20T04:16:19;21.50;91.10
15409;DHT22;7803;48.130;13.788;2022-11-20T04:19:21;21.60;91.20
15409;DHT22;7803;48.130;13.788;2022-11-20T04:22:23;21.50;91.10
15409;DHT22;7803;48.130;13.788;2022-11-20T04:25:25;21.50;91.20
15409;DHT22;7803;48.130;13.788;2022-11-20T04:28:28;21.50;91.10
15409;DHT22;7803;48.130;13.788;2022-11-20T04:31:34;21.50;91.00
15409;DHT22;7803;48.130;13.788;2022-11-20T04:34:36;21.50;91.00
15409;DHT22;7803;48.130;13.788;2022-11-20T04:37:38;21.50;91.00
15409;DHT22;7803;48.130;13.788;2022-11-20T04:40:40;21.50;91.00
15409;DHT22;7803;48.130;13.788;2022-11-20T04:43:46;21.50;91.10
15409;DHT22;7803;48.130;13.788;2022-11-20T04:46:48;21.50;91.10
15409;DHT22;7803;48.130;13.788;2022-11-20T04:49:50;21.50;91.10
15409;DHT22;7803;48.130;13.788;2022-11-20T04:52:52;21.50;91.10
15409;DHT22;7803;48.130;13.788;2022-11-20T04:55:59;21.60;91.10
15409;DHT22;7803;48.130;13.788;2022-11-20T04:59:03;21.60;91.10
15409;DHT22;7803;48.130;13.788;2022-11-20T05:02:05;21.60;91.10
15409;DHT22;7803;48.130;13.788;2022-11-20T05:05:07;21.60;91.10
15409;DHT22;7803;48.130;13.788;2022-11-20T05:08:09;21.60;91.10
15409;DHT22;7803;48.130;13.788;2022-11-20T05:11:13;21.60;91.10
15409;DHT22;7803;48.130;13.788;2022-11-20T05:14:17;21.60;91.10
15409;DHT22;7803;48.130;13.788;2022-11-20T05:17:19;21.60;91.00
15409;DHT22;7803;48.130;13.788;2022-11-20T05:20:21;21.60;91.00
15409;DHT22;7803;48.130;13.788;2022-11-20T05:23:23;21.60;91.00
15409;DHT22;7803;48.130;13.788;2022-11-20T05:26:25;21.70;91.00
15409;DHT22;7803;48.130;13.788;2022-11-20T05:29:29;21.70;91.00
15409;DHT22;7803;48.130;13.788;2022-11-20T05:32:31;21.70;91.00
15409;DHT22;7803;48.130;13.788;2022-11-20T05:35:33;21.70;91.00
15409;DHT22;7803;48.130;13.788;2022-11-20T05:38:34;21.70;91.00
15409;DHT22;7803;48.130;13.788;2022-11-20T05:41:36;21.70;91.00
15409;DHT22;7803;48.130;13.788;2022-11-20T05:44:40;21.80;91.00
15409;DHT22;7803;48.130;13.788;2022-11-20T05:47:42;21.80;90.90
15409;DHT22;7803;48.130;13.788;2022-11-20T05:50:44;21.80;90.90
15409;DHT22;7803;48.130;13.788;2022-11-20T05:53:46;21.80;91.00
15409;DHT22;7803;48.130;13.788;2022-11-20T05:56:48;21.80;90.90
15409;DHT22;7803;48.130;13.788;2022-11-20T05:59:52;21.80;90.90
15409;DHT22;7803;48.130;13.788;2022-11-20T06:02:54;21.80;91.30
15409;DHT22;7803;48.130;13.788;2022-11-20T06:05:55;21.80;90.90
15409;DHT22;7803;48.130;13.788;2022-11-20T06:08:58;21.80;90.90
15409;DHT22;7803;48.130;13.788;2022-11-20T06:12:00;21.80;90.90
15409;DHT22;7803;48.130;13.788;2022-11-20T06:15:04;21.80;90.90
15409;DHT22;7803;48.130;13.788;2022-11-20T06:18:07;21.80;90.90
15409;DHT22;7803;48.130;13.788;2022-11-20T06:21:10;21.90;90.90
15409;DHT22;7803;48.130;13.788;2022-11-20T06:24:13;21.90;90.90
15409;DHT22;7803;48.130;13.788;2022-11-20T06:27:15;21.90;90.80
15409;DHT22;7803;48.130;13.788;2022-11-20T06:30:19;21.90;90.90
15409;DHT22;7803;48.130;13.788;2022-11-20T06:33:21;21.90;90.80
15409;DHT22;7803;48.130;13.788;2022-11-20T06:36:23;21.90;90.80
15409;DHT22;7803;48.130;13.788;2022-11-20T06:39:25;21.90;90.80
15409;DHT22;7803;48.130;13.788;2022-11-20T06:42:27;21.90;90.80
15409;DHT22;7803;48.130;13.788;2022-11-20T06:45:31;21.90;90.90
15409;DHT22;7803;48.130;13.788;2022-11-20T06:48:33;21.90;90.80
15409;DHT22;7803;48.130;13.788;2022-11-20T06:51:35;21.90;90.80
15409;DHT22;7803;48.130;13.788;2022-11-20T06:54:37;21.90;90.90
15409;DHT22;7803;48.130;13.788;2022-11-20T06:57:39;21.90;90.80
15409;DHT22;7803;48.130;13.788;2022-11-20T07:00:42;21.90;90.90
15409;DHT22;7803;48.130;13.788;2022-11-20T07:03:44;21.90;90.90
15409;DHT22;7803;48.130;13.788;2022-11-20T07:06:46;22.00;90.90
15409;DHT22;7803;48.130;13.788;2022-11-20T07:09:49;22.00;90.90
15409;DHT22;7803;48.130;13.788;2022-11-20T07:12:51;22.00;90.90
15409;DHT22;7803;48.130;13.788;2022-11-20T07:15:59;21.90;90.80
15409;DHT22;7803;48.130;13.788;2022-11-20T07:19:01;22.00;90.90
15409;DHT22;7803;48.130;13.788;2022-11-20T07:22:03;22.00;90.80
15409;DHT22;7803;48.130;13.788;2022-11-20T07:25:05;22.00;90.80
15409;DHT22;7803;48.130;13.788;2022-11-20T07:28:09;22.00;90.90
15409;DHT22;7803;48.130;13.788;2022-11-20T07:31:13;22.00;90.90
15409;DHT22;7803;48.130;13.788;2022-11-20T07:34:15;22.00;90.90
15409;DHT22;7803;48.130;13.788;2022-11-20T07:37:17;22.00;90.80
15409;DHT22;7803;48.130;13.788;2022-11-20T07:40:19;22.00;90.70
15409;DHT22;7803;48.130;13.788;2022-11-20T07:43:21;22.00;90.40
15409;DHT22;7803;48.130;13.788;2022-11-20T07:46:24;22.00;90.30
15409;DHT22;7803;48.130;13.788;2022-11-20T07:49:26;22.00;90.30
15409;DHT22;7803;48.130;13.788;2022-11-20T07:52:29;22.00;90.30
15409;DHT22;7803;48.130;13.788;2022-11-20T07:55:31;22.00;90.30
15409;DHT22;7803;48.130;13.788;2022-11-20T07:58:33;22.00;90.40
15409;DHT22;7803;48.130;13.788;2022-11-20T08:01:37;22.00;90.40
15409;DHT22;7803;48.130;13.788;2022-11-20T08:04:39;22.00;90.40
15409;DHT22;7803;48.130;13.788;2022-11-20T08:07:43;22.00;90.50
15409;DHT22;7803;48.130;13.788;2022-11-20T08:10:45;22.00;90.50
15409;DHT22;7803;48.130;13.788;2022-11-20T08:13:47;22.00;90.50
15409;DHT22;7803;48.130;13.788;2022-11-20T08:17:08;22.00;90.60
15409;DHT22;7803;48.130;13.788;2022-11-20T08:20:10;22.00;90.60
15409;DHT22;7803;48.130;13.788;2022-11-20T08:23:12;22.00;90.70
15409;DHT22;7803;48.130;13.788;2022-11-20T08:26:14;22.00;90.70
15409;DHT22;7803;48.130;13.788;2022-11-20T08:29:16;22.00;90.70
15409;DHT22;7803;48.130;13.788;2022-11-20T08:32:20;22.00;90.70
15409;DHT22;7803;48.130;13.788;2022-11-20T08:35:22;22.00;90.80
15409;DHT22;7803;48.130;13.788;2022-11-20T08:38:24;22.00;90.80
15409;DHT22;7803;48.130;13.788;2022-11-20T08:41:26;22.00;90.80
15409;DHT22;7803;48.130;13.788;2022-11-20T08:44:28;22.00;90.90
15409;DHT22;7803;48.130;13.788;2022-11-20T08:47:32;22.00;90.90
15409;DHT22;7803;48.130;13.788;2022-11-20T08:50:34;22.00;90.90
15409;DHT22;7803;48.130;13.788;2022-11-20T08:53:36;22.00;91.00
15409;DHT22;7803;48.130;13.788;2022-11-20T08:56:38;22.00;91.00
15409;DHT22;7803;48.130;13.788;2022-11-20T08:59:40;22.00;91.00
15409;DHT22;7803;48.130;13.788;2022-11-20T09:02:44;21.90;91.00
15409;DHT22;7803;48.130;13.788;2022-11-20T09:05:45;21.90;91.00
15409;DHT22;7803;48.130;13.788;2022-11-20T09:08:51;22.00;91.10
15409;DHT22;7803;48.130;13.788;2022-11-20T09:11:53;22.00;91.10
15409;DHT22;7803;48.130;13.788;2022-11-20T09:14:56;22.00;91.30
15409;DHT22;7803;48.130;13.788;2022-11-20T09:18:01;22.00;91.80
15409;DHT22;7803;48.130;13.788;2022-11-20T09:21:06;22.00;92.10
15409;DHT22;7803;48.130;13.788;2022-11-20T09:24:09;22.00;92.20
15409;DHT22;7803;48.130;13.788;2022-11-20T09:27:11;22.00;92.70
15409;DHT22;7803;48.130;13.788;2022-11-20T09:30:14;22.10;93.10
15409;DHT22;7803;48.130;13.788;2022-11-20T09:33:18;22.10;93.30
15409;DHT22;7803;48.130;13.788;2022-11-20T09:36:20;22.10;93.60
15409;DHT22;7803;48.130;13.788;2022-11-20T09:39:22;22.10;93.70
15409;DHT22;7803;48.130;13.788;2022-11-20T09:42:33;22.10;93.70
15409;DHT22;7803;48.130;13.788;2022-11-20T09:45:48;22.10;93.70
15409;DHT22;7803;48.130;13.788;2022-11-20T09:49:09;22.10;93.80
15409;DHT22;7803;48.130;13.788;2022-11-20T09:52:22;22.10;93.80
15409;DHT22;7803;48.130;13.788;2022-11-20T09:55:28;22.10;94.00
15409;DHT22;7803;48.130;13.788;2022-11-20T09:58:35;22.20;94.20
15409;DHT22;7803;48.130;13.788;2022-11-20T10:01:40;22.20;94.20
15409;DHT22;7803;48.130;13.788;2022-11-20T10:04:49;22.20;94.60
15409;DHT22;7803;48.130;13.788;2022-11-20T10:07:58;22.20;94.70
15409;DHT22;7803;48.130;13.788;2022-11-20T10:11:06;22.20;98.60
15409;DHT22;7803;48.130;13.788;2022-11-20T10:14:19;22.30;99.90
15409;DHT22;7803;48.130;13.788;2022-11-20T10:17:31;22.30;97.40
15409;DHT22;7803;48.130;13.788;2022-11-20T10:20:43;22.30;96.50
15409;DHT22;7803;48.130;13.788;2022-11-20T10:24:05;22.40;96.20
15409;DHT22;7803;48.130;13.788;2022-11-20T10:27:32;22.40;95.70
15409;DHT22;7803;48.130;13.788;2022-11-20T10:30:40;22.40;97.20
15409;DHT22;7803;48.130;13.788;2022-11-20T10:33:45;22.30;96.40
15409;DHT22;7803;48.130;13.788;2022-11-20T10:36:56;22.30;95.20
15409;DHT22;7803;48.130;13.788;2022-11-20T10:40:03;22.30;94.60
15409;DHT22;7803;48.130;13.788;2022-11-20T10:43:12;22.30;94.10
15409;DHT22;7803;48.130;13.788;2022-11-20T10:46:17;22.20;93.80
15409;DHT22;7803;48.130;13.788;2022-11-20T10:49:20;22.20;93.30
15409;DHT22;7803;48.130;13.788;2022-11-20T10:52:32;22.20;93.30
15409;DHT22;7803;48.130;13.788;2022-11-20T10:55:42;22.20;93.20
15409;DHT22;7803;48.130;13.788;2022-11-20T10:58:54;22.10;93.00
15409;DHT22;7803;48.130;13.788;2022-11-20T11:01:58;22.10;91.90
15409;DHT22;7803;48.130;13.788;2022-11-20T11:05:05;22.10;91.70
15409;DHT22;7803;48.130;13.788;2022-11-20T11:08:14;22.10;92.10
15409;DHT22;7803;48.130;13.788;2022-11-20T11:11:21;22.10;91.40
15409;DHT22;7803;48.130;13.788;2022-11-20T11:14:24;22.00;91.30
15409;DHT22;7803;48.130;13.788;2022-11-20T11:17:28;22.00;90.90
15409;DHT22;7803;48.130;13.788;2022-11-20T11:20:31;22.00;90.30
15409;DHT22;7803;48.130;13.788;2022-11-20T11:23:36;22.00;88.80
15409;DHT22;7803;48.130;13.788;2022-11-20T11:26:39;22.00;87.70
15409;DHT22;7803;48.130;13.788;2022-11-20T11:29:41;22.00;87.30
15409;DHT22;7803;48.130;13.788;2022-11-20T11:32:43;22.00;86.10
15409;DHT22;7803;48.130;13.788;2022-11-20T11:35:48;21.90;85.60
15409;DHT22;7803;48.130;13.788;2022-11-20T11:38:52;21.90;84.40
15409;DHT22;7803;48.130;13.788;2022-11-20T11:41:55;21.90;84.40
15409;DHT22;7803;48.130;13.788;2022-11-20T11:44:59;21.90;82.70
15409;DHT22;7803;48.130;13.788;2022-11-20T11:48:08;21.90;82.70
15409;DHT22;7803;48.130;13.788;2022-11-20T11:51:10;21.90;83.20
15409;DHT22;7803;48.130;13.788;2022-11-20T11:54:19;21.90;85.60
15409;DHT22;7803;48.130;13.788;2022-11-20T11:57:26;21.90;86.90
15409;DHT22;7803;48.130;13.788;2022-11-20T12:00:30;22.00;88.30
15409;DHT22;7803;48.130;13.788;2022-11-20T12:03:36;22.00;89.30
15409;DHT22;7803;48.130;13.788;2022-11-20T12:06:41;22.00;90.00
15409;DHT22;7803;48.130;13.788;2022-11-20T12:09:48;22.00;90.20
15409;DHT22;7803;48.130;13.788;2022-11-20T12:12:54;22.00;90.40
15409;DHT22;7803;48.130;13.788;2022-11-20T12:15:58;22.00;90.60
15409;DHT22;7803;48.130;13.788;2022-11-20T12:19:00;22.10;90.80
15409;DHT22;7803;48.130;13.788;2022-11-20T12:22:09;22.00;90.90
15409;DHT22;7803;48.130;13.788;2022-11-20T12:25:19;22.10;91.00
15409;DHT22;7803;48.130;13.788;2022-11-20T12:28:42;22.00;91.10
15409;DHT22;7803;48.130;13.788;2022-11-20T12:31:57;22.00;91.20
15409;DHT22;7803;48.130;13.788;2022-11-20T12:35:06;22.00;91.40
15409;DHT22;7803;48.130;13.788;2022-11-20T12:38:31;22.10;91.60
15409;DHT22;7803;48.130;13.788;2022-11-20T12:41:58;22.10;91.60
15409;DHT22;7803;48.130;13.788;2022-11-20T12:49:12;22.10;91.80
15409;DHT22;7803;48.130;13.788;2022-11-20T12:52:25;22.10;91.80
15409;DHT22;7803;48.130;13.788;2022-11-20T12:55:36;22.10;91.90
15409;DHT22;7803;48.130;13.788;2022-11-20T12:58:55;22.10;91.90
15409;DHT22;7803;48.130;13.788;2022-11-20T13:02:09;22.10;92.00
15409;DHT22;7803;48.130;13.788;2022-11-20T13:05:20;22.10;92.00
15409;DHT22;7803;48.130;13.788;2022-11-20T13:08:27;22.10;92.00
15409;DHT22;7803;48.130;13.788;2022-11-20T13:11:36;22.10;92.00
15409;DHT22;7803;48.130;13.788;2022-11-20T13:14:46;22.10;92.20
15409;DHT22;7803;48.130;13.788;2022-11-20T13:17:54;22.10;92.10
15409;DHT22;7803;48.130;13.788;2022-11-20T13:20:57;22.20;92.10
15409;DHT22;7803;48.130;13.788;2022-11-20T13:24:04;22.10;92.10
15409;DHT22;7803;48.130;13.788;2022-11-20T13:27:19;22.10;92.20
15409;DHT22;7803;48.130;13.788;2022-11-20T13:30:24;22.10;92.20
15409;DHT22;7803;48.130;13.788;2022-11-20T13:33:32;22.10;92.20
15409;DHT22;7803;48.130;13.788;2022-11-20T13:36:35;22.10;92.30
15409;DHT22;7803;48.130;13.788;2022-11-20T13:39:38;22.10;92.30
15409;DHT22;7803;48.130;13.788;2022-11-20T13:42:44;22.10;92.30
15409;DHT22;7803;48.130;13.788;2022-11-20T13:45:57;22.10;92.40
15409;DHT22;7803;48.130;13.788;2022-11-20T13:49:07;22.10;92.40
15409;DHT22;7803;48.130;13.788;2022-11-20T13:52:33;22.10;92.30
15409;DHT22;7803;48.130;13.788;2022-11-20T13:55:40;22.20;92.40
15409;DHT22;7803;48.130;13.788;2022-11-20T13:58:52;22.10;92.40
15409;DHT22;7803;48.130;13.788;2022-11-20T14:01:57;22.20;92.40
15409;DHT22;7803;48.130;13.788;2022-11-20T14:05:01;22.20;92.50
15409;DHT22;7803;48.130;13.788;2022-11-20T14:08:05;22.20;92.40
15409;DHT22;7803;48.130;13.788;2022-11-20T14:11:15;22.10;92.50
15409;DHT22;7803;48.130;13.788;2022-11-20T14:14:19;22.10;92.50
15409;DHT22;7803;48.130;13.788;2022-11-20T14:17:29;22.10;92.50
15409;DHT22;7803;48.130;13.788;2022-11-20T14:20:33;22.10;92.50
15409;DHT22;7803;48.130;13.788;2022-11-20T14:23:36;22.10;92.50
15409;DHT22;7803;48.130;13.788;2022-11-20T14:26:42;22.20;92.50
15409;DHT22;7803;48.130;13.788;2022-11-20T14:29:48;22.20;92.50
15409;DHT22;7803;48.130;13.788;2022-11-20T14:32:54;22.20;92.60
15409;DHT22;7803;48.130;13.788;2022-11-20T14:35:58;22.10;92.50
15409;DHT22;7803;48.130;13.788;2022-11-20T14:39:02;22.10;92.50
15409;DHT22;7803;48.130;13.788;2022-11-20T14:42:15;22.10;92.50
15409;DHT22;7803;48.130;13.788;2022-11-20T14:45:18;22.20;92.60
15409;DHT22;7803;48.130;13.788;2022-11-20T14:48:27;22.10;92.60
15409;DHT22;7803;48.130;13.788;2022-11-20T14:51:32;22.20;92.60
15409;DHT22;7803;48.130;13.788;2022-11-20T14:54:44;22.20;92.50
15409;DHT22;7803;48.130;13.788;2022-11-20T14:57:54;22.20;92.40
15409;DHT22;7803;48.130;13.788;2022-11-20T15:00:58;22.20;92.50
15409;DHT22;7803;48.130;13.788;2022-11-20T15:04:06;22.20;92.40
15409;DHT22;7803;48.130;13.788;2022-11-20T15:07:10;22.20;92.50
15409;DHT22;7803;48.130;13.788;2022-11-20T15:10:19;22.20;92.50
15409;DHT22;7803;48.130;13.788;2022-11-20T15:13:29;22.20;92.40
15409;DHT22;7803;48.130;13.788;2022-11-20T15:16:32;22.20;92.40
15409;DHT22;7803;48.130;13.788;2022-11-20T15:19:36;22.20;92.40
15409;DHT22;7803;48.130;13.788;2022-11-20T15:22:41;22.20;92.40
15409;DHT22;7803;48.130;13.788;2022-11-20T15:25:48;22.20;92.40
15409;DHT22;7803;48.130;13.788;2022-11-20T15:28:52;22.20;92.30
15409;DHT22;7803;48.130;13.788;2022-11-20T15:31:55;22.20;92.20
15409;DHT22;7803;48.130;13.788;2022-11-20T15:34:59;22.20;92.20
15409;DHT22;7803;48.130;13.788;2022-11-20T15:38:02;22.20;92.30
15409;DHT22;7803;48.130;13.788;2022-11-20T15:41:05;22.20;92.20
15409;DHT22;7803;48.130;13.788;2022-11-20T15:44:07;22.20;92.10
15409;DHT22;7803;48.130;13.788;2022-11-20T15:47:10;22.20;92.10
15409;DHT22;7803;48.130;13.788;2022-11-20T15:50:17;22.20;92.10
15409;DHT22;7803;48.130;13.788;2022-11-20T15:53:22;22.20;92.00
15409;DHT22;7803;48.130;13.788;2022-11-20T15:56:25;22.20;91.60
15409;DHT22;7803;48.130;13.788;2022-11-20T15:59:28;22.20;91.60
15409;DHT22;7803;48.130;13.788;2022-11-20T16:02:31;22.20;91.70
15409;DHT22;7803;48.130;13.788;2022-11-20T16:05:39;22.20;91.80
15409;DHT22;7803;48.130;13.788;2022-11-20T16:08:42;22.20;91.70
15409;DHT22;7803;48.130;13.788;2022-11-20T16:11:44;22.20;91.70
15409;DHT22;7803;48.130;13.788;2022-11-20T16:14:48;22.20;91.70
15409;DHT22;7803;48.130;13.788;2022-11-20T16:18:09;22.20;91.70
15409;DHT22;7803;48.130;13.788;2022-11-20T16:21:14;22.20;91.90
15409;DHT22;7803;48.130;13.788;2022-11-20T16:24:19;22.20;92.00
15409;DHT22;7803;48.130;13.788;2022-11-20T16:27:22;22.20;92.10
15409;DHT22;7803;48.130;13.788;2022-11-20T16:30:25;22.20;92.20
15409;DHT22;7803;48.130;13.788;2022-11-20T16:33:28;22.20;92.30
15409;DHT22;7803;48.130;13.788;2022-11-20T16:36:32;22.20;92.40
15409;DHT22;7803;48.130;13.788;2022-11-20T16:39:35;22.20;92.40
15409;DHT22;7803;48.130;13.788;2022-11-20T16:42:38;22.20;92.40
15409;DHT22;7803;48.130;13.788;2022-11-20T16:45:42;22.20;92.40
15409;DHT22;7803;48.130;13.788;2022-11-20T16:48:45;22.30;92.40
15409;DHT22;7803;48.130;13.788;2022-11-20T16:51:55;22.30;92.50
15409;DHT22;7803;48.130;13.788;2022-11-20T16:54:58;22.30;92.50
15409;DHT22;7803;48.130;13.788;2022-11-20T16:58:01;22.30;92.50
15409;DHT22;7803;48.130;13.788;2022-11-20T17:01:08;22.30;92.50
15409;DHT22;7803;48.130;13.788;2022-11-20T17:04:12;22.30;92.60
15409;DHT22;7803;48.130;13.788;2022-11-20T17:07:17;22.30;92.60
15409;DHT22;7803;48.130;13.788;2022-11-20T17:10:20;22.30;92.60
15409;DHT22;7803;48.130;13.788;2022-11-20T17:13:23;22.30;92.60
15409;DHT22;7803;48.130;13.788;2022-11-20T17:16:28;22.30;92.60
15409;DHT22;7803;48.130;13.788;2022-11-20T17:19:31;22.30;92.60
15409;DHT22;7803;48.130;13.788;2022-11-20T17:22:36;22.30;92.60
15409;DHT22;7803;48.130;13.788;2022-11-20T17:25:40;22.30;92.60
15409;DHT22;7803;48.130;13.788;2022-11-20T17:28:43;22.30;92.60
15409;DHT22;7803;48.130;13.788;2022-11-20T17:31:46;22.30;92.60
15409;DHT22;7803;48.130;13.788;2022-11-20T17:34:50;22.30;92.60
15409;DHT22;7803;48.130;13.788;2022-11-20T17:37:56;22.30;92.60
15409;DHT22;7803;48.130;13.788;2022-11-20T17:41:02;22.30;92.60
15409;DHT22;7803;48.130;13.788;2022-11-20T17:44:05;22.30;92.60
15409;DHT22;7803;48.130;13.788;2022-11-20T17:47:08;22.30;92.60
15409;DHT22;7803;48.130;13.788;2022-11-20T17:50:11;22.30;92.60
15409;DHT22;7803;48.130;13.788;2022-11-20T17:53:15;22.30;92.60
15409;DHT22;7803;48.130;13.788;2022-11-20T17:56:19;22.30;92.60
15409;DHT22;7803;48.130;13.788;2022-11-20T17:59:39;22.40;92.60
15409;DHT22;7803;48.130;13.788;2022-11-20T18:02:42;22.30;92.60
15409;DHT22;7803;48.130;13.788;2022-11-20T18:05:47;22.30;92.60
15409;DHT22;7803;48.130;13.788;2022-11-20T18:08:53;22.30;92.60
15409;DHT22;7803;48.130;13.788;2022-11-20T18:11:56;22.30;92.60
15409;DHT22;7803;48.130;13.788;2022-11-20T18:15:03;22.30;92.60
15409;DHT22;7803;48.130;13.788;2022-11-20T18:18:06;22.30;92.60
15409;DHT22;7803;48.130;13.788;2022-11-20T18:21:09;22.30;92.60
15409;DHT22;7803;48.130;13.788;2022-11-20T18:24:13;22.40;92.60
15409;DHT22;7803;48.130;13.788;2022-11-20T18:27:18;22.40;92.60
15409;DHT22;7803;48.130;13.788;2022-11-20T18:30:22;22.40;92.60
15409;DHT22;7803;48.130;13.788;2022-11-20T18:33:24;22.30;92.60
15409;DHT22;7803;48.130;13.788;2022-11-20T18:36:28;22.40;92.80
15409;DHT22;7803;48.130;13.788;2022-11-20T18:39:34;22.40;92.80
15409;DHT22;7803;48.130;13.788;2022-11-20T18:42:36;22.40;92.70
15409;DHT22;7803;48.130;13.788;2022-11-20T18:46:01;22.30;92.70
15409;DHT22;7803;48.130;13.788;2022-11-20T18:49:04;22.40;92.80
15409;DHT22;7803;48.130;13.788;2022-11-20T18:52:08;22.40;94.10
15409;DHT22;7803;48.130;13.788;2022-11-20T18:55:14;22.50;94.80
15409;DHT22;7803;48.130;13.788;2022-11-20T18:58:17;22.70;93.20
15409;DHT22;7803;48.130;13.788;2022-11-20T19:01:20;22.90;92.60
15409;DHT22;7803;48.130;13.788;2022-11-20T19:04:22;23.00;92.30
15409;DHT22;7803;48.130;13.788;2022-11-20T19:07:26;23.00;92.30
15409;DHT22;7803;48.130;13.788;2022-11-20T19:10:30;23.00;91.90
15409;DHT22;7803;48.130;13.788;2022-11-20T19:13:34;23.00;91.10
15409;DHT22;7803;48.130;13.788;2022-11-20T19:16:37;22.90;91.40
15409;DHT22;7803;48.130;13.788;2022-11-20T19:19:40;22.90;91.60
15409;DHT22;7803;48.130;13.788;2022-11-20T19:22:43;22.80;89.30
15409;DHT22;7803;48.130;13.788;2022-11-20T19:25:48;22.80;86.50
15409;DHT22;7803;48.130;13.788;2022-11-20T19:28:51;22.70;88.80
15409;DHT22;7803;48.130;13.788;2022-11-20T19:31:54;22.70;90.80